Time;durP1;ratioP1;P1;durP2;ratioP2;P2;SDS_P1;SDS_P2;PMS_P1;PMS_P2;Temp;Humidity;BMP_temperature;BMP_pressure;BME280_temperature;BME280_humidity;BME280_pressure;Samples;Min_cycle;Max_cycle;Signal;HPM_P1;HPM_P2
2022/09/22 00:00:41;;;;;;;;;;;22.50;59.10;;;;;;5064068;28;20035;-41
2022/09/22 00:03:07;;;;;;;2.80;2.60;;;22.50;59.30;;;;;;5062810;28;19913;-42
2022/09/22 00:05:33;;;;;;;2.90;2.70;;;22.50;59.70;;;;;;5062718;28;20161;-42
2022/09/22 00:08:03;;;;;;;2.88;2.67;;;22.50;59.50;;;;;;5044560;28;20029;-42
2022/09/22 00:10:29;;;;;;;2.80;2.60;;;22.50;59.40;;;;;;5045384;28;20024;-42
2022/09/22 00:12:55;;;;;;;2.83;2.63;;;22.50;59.00;;;;;;5049139;28;20103;-43
2022/09/22 00:15:22;;;;;;;3.30;3.00;;;22.50;58.80;;;;;;5072156;28;20111;-42
2022/09/22 00:17:48;;;;;;;3.00;2.80;;;22.50;58.70;;;;;;5082115;28;20028;-43
2022/09/22 00:20:14;;;;;;;2.95;2.75;;;22.50;58.90;;;;;;5083638;28;20697;-42
2022/09/22 00:22:41;;;;;;;2.88;2.67;;;22.50;58.80;;;;;;5073631;28;20024;-43
2022/09/22 00:25:07;;;;;;;2.88;2.67;;;22.50;58.80;;;;;;5074923;28;20037;-42
2022/09/22 00:27:33;;;;;;;2.97;2.78;;;22.50;58.80;;;;;;5063232;28;20025;-42
2022/09/22 00:30:00;;;;;;;2.80;2.60;;;22.40;58.70;;;;;;5063092;28;20043;-42
2022/09/22 00:32:26;;;;;;;3.38;3.10;;;22.40;58.60;;;;;;5062849;28;20045;-42
2022/09/22 00:34:52;;;;;;;1.90;1.80;;;22.40;58.70;;;;;;5069377;28;20050;-43
2022/09/22 00:37:18;;;;;;;2.65;2.45;;;22.40;58.70;;;;;;5067728;28;20029;-47
2022/09/22 00:39:44;;;;;;;2.67;2.47;;;22.40;58.50;;;;;;5063201;28;20089;-45
2022/09/22 00:42:14;;;;;;;2.70;2.50;;;22.40;58.40;;;;;;5063027;28;20071;-43
2022/09/22 00:44:42;;;;;;;4.05;2.67;;;22.30;58.30;;;;;;5051162;28;20056;-47
2022/09/22 00:47:28;;;;;;;;;;;22.30;58.40;;;;;;5043466;28;20021;-44
2022/09/22 00:50:07;;;;;;;2.58;2.38;;;22.30;58.30;;;;;;5042916;28;19909;-44
2022/09/22 00:52:53;;;;;;;2.65;2.45;;;22.30;58.40;;;;;;5067961;28;20056;-45
2022/09/22 00:55:23;;;;;;;2.75;2.55;;;22.20;58.30;;;;;;5051871;28;20108;-44
2022/09/22 00:57:50;;;;;;;2.85;2.65;;;22.20;58.10;;;;;;5044816;28;20036;-43
2022/09/22 01:00:16;;;;;;;3.72;2.72;;;22.10;57.90;;;;;;5062448;28;20088;-44
2022/09/22 01:02:46;;;;;;;2.90;2.70;;;22.10;58.30;;;;;;5062672;28;20028;-47
2022/09/22 01:05:13;;;;;;;3.10;2.90;;;22.10;58.30;;;;;;5062389;28;20572;-41
2022/09/22 01:07:41;;;;;;;2.90;2.70;;;22.10;58.40;;;;;;5062544;28;20064;-42
2022/09/22 01:10:08;;;;;;;2.90;2.70;;;22.10;58.40;;;;;;5079347;28;20037;-41
2022/09/22 01:12:35;;;;;;;2.83;2.63;;;22.00;58.20;;;;;;5064677;28;20021;-41
2022/09/22 01:15:31;;;;;;;3.08;2.88;;;22.00;58.30;;;;;;5059319;28;20103;-41
2022/09/22 01:18:19;;;;;;;2.72;2.53;;;22.00;58.70;;;;;;5062050;28;20056;-41
2022/09/22 01:21:19;;;;;;;3.17;2.97;;;21.90;58.20;;;;;;5036988;28;20048;-41
2022/09/22 01:23:48;;;;;;;3.30;3.10;;;21.90;58.10;;;;;;5025187;28;20606;-41
2022/09/22 01:26:46;;;;;;;2.90;2.70;;;21.90;58.20;;;;;;5059706;28;20028;-47
2022/09/22 01:29:22;;;;;;;3.30;2.67;;;21.80;58.00;;;;;;5062100;28;20056;-40
2022/09/22 01:32:21;;;;;;;2.50;2.30;;;21.80;58.20;;;;;;5055395;28;20055;-45
2022/09/22 01:34:54;;;;;;;2.90;2.70;;;21.80;58.20;;;;;;5077139;28;20044;-43
2022/09/22 01:37:45;;;;;;;3.05;2.83;;;21.80;58.20;;;;;;5032351;28;20033;-41
2022/09/22 01:40:17;;;;;;;2.42;2.22;;;21.70;58.20;;;;;;5024482;28;20040;-41
2022/09/22 01:42:49;;;;;;;2.90;2.70;;;21.70;58.20;;;;;;5030962;28;20025;-41
2022/09/22 01:45:18;;;;;;;2.58;2.40;;;21.70;58.10;;;;;;5059467;28;20569;-41
2022/09/22 01:47:52;;;;;;;2.65;2.45;;;21.70;58.10;;;;;;5058313;28;20033;-40
2022/09/22 01:50:45;;;;;;;3.00;2.80;;;21.60;58.00;;;;;;5044415;28;20110;-41
2022/09/22 01:53:20;;;;;;;3.03;2.83;;;21.60;58.10;;;;;;5050958;28;20117;-41
2022/09/22 01:55:50;;;;;;;2.90;2.70;;;21.60;58.20;;;;;;5043954;28;20029;-42
2022/09/22 01:58:25;;;;;;;2.78;2.58;;;21.50;58.20;;;;;;5044245;28;20036;-41
2022/09/22 02:00:55;;;;;;;2.72;2.53;;;21.50;58.20;;;;;;5042268;28;20028;-42
2022/09/22 02:03:35;;;;;;;2.53;2.33;;;21.50;58.30;;;;;;5076218;28;20025;-41
2022/09/22 02:06:08;;;;;;;3.25;3.05;;;21.50;58.40;;;;;;5061593;28;20053;-41
2022/09/22 02:08:39;;;;;;;2.80;2.60;;;21.50;58.40;;;;;;5061693;28;20033;-40
2022/09/22 02:11:12;;;;;;;2.90;2.70;;;21.40;58.40;;;;;;5062033;28;20033;-42
2022/09/22 02:13:40;;;;;;;3.08;2.88;;;21.40;58.40;;;;;;5041385;28;20445;-41
2022/09/22 02:16:06;;;;;;;;;;;21.40;58.40;;;;;;5054949;28;20036;-42
2022/09/22 02:18:56;;;;;;;2.97;2.78;;;21.30;58.30;;;;;;5061469;28;19930;-42
2022/09/22 02:21:24;;;;;;;2.90;2.60;;;21.30;58.30;;;;;;5046023;28;20028;-41
2022/09/22 02:23:51;;;;;;;2.90;2.70;;;21.20;58.30;;;;;;5061295;28;20033;-41
2022/09/22 02:26:22;;;;;;;3.10;2.90;;;21.20;58.30;;;;;;5060500;28;20025;-41
2022/09/22 02:28:54;;;;;;;2.90;2.70;;;21.20;58.30;;;;;;5028370;28;20053;-42
2022/09/22 02:31:22;;;;;;;2.95;2.75;;;21.20;58.30;;;;;;5061690;28;20031;-42
2022/09/22 02:33:48;;;;;;;2.67;2.47;;;21.10;58.30;;;;;;5074522;28;20059;-41
2022/09/22 02:36:37;;;;;;;2.75;2.55;;;21.10;58.30;;;;;;5077204;28;20044;-41
2022/09/22 02:39:06;;;;;;;2.75;2.55;;;21.10;58.40;;;;;;5065304;28;20025;-42
2022/09/22 02:41:43;;;;;;;2.78;2.58;;;21.10;58.40;;;;;;5085402;28;20028;-42
2022/09/22 02:44:19;;;;;;;2.70;2.50;;;21.00;58.40;;;;;;5077509;28;20037;-41
2022/09/22 02:47:04;;;;;;;2.97;2.78;;;21.00;58.40;;;;;;5069467;28;20132;-42
2022/09/22 02:49:30;;;;;;;3.35;3.05;;;21.00;58.40;;;;;;5085465;28;20048;-41
2022/09/22 02:51:57;;;;;;;3.20;3.00;;;20.90;58.40;;;;;;5099676;28;20096;-42
2022/09/22 02:54:23;;;;;;;3.00;2.80;;;20.90;58.40;;;;;;5084906;28;20043;-41
2022/09/22 02:56:49;;;;;;;2.73;2.53;;;20.90;58.50;;;;;;5084890;28;20553;-41
2022/09/22 02:59:16;;;;;;;3.00;2.80;;;20.90;58.50;;;;;;5085002;28;20267;-40
2022/09/22 03:01:42;;;;;;;2.88;2.67;;;20.80;58.50;;;;;;5084972;28;20031;-41
2022/09/22 03:04:08;;;;;;;2.97;2.78;;;20.80;58.60;;;;;;5091896;28;20077;-41
2022/09/22 03:06:35;;;;;;;3.20;2.92;;;20.70;58.60;;;;;;5104895;28;20019;-41
2022/09/22 03:09:01;;;;;;;3.08;2.88;;;20.70;58.50;;;;;;5104354;28;20028;-41
2022/09/22 03:11:27;;;;;;;3.03;2.83;;;20.60;58.50;;;;;;5094201;28;20070;-41
2022/09/22 03:13:53;;;;;;;2.70;2.50;;;20.60;58.50;;;;;;5080183;28;20037;-42
2022/09/22 03:16:19;;;;;;;2.90;2.57;;;20.60;58.60;;;;;;5080542;28;20031;-41
2022/09/22 03:18:45;;;;;;;2.55;2.35;;;20.50;58.60;;;;;;5093511;28;20031;-41
2022/09/22 03:21:12;;;;;;;2.80;2.60;;;20.50;58.60;;;;;;5105062;28;20433;-41
2022/09/22 03:23:38;;;;;;;3.03;2.83;;;20.50;58.70;;;;;;5104994;28;20058;-40
2022/09/22 03:26:04;;;;;;;3.08;2.88;;;20.40;58.60;;;;;;5102566;28;20050;-41
2022/09/22 03:28:30;;;;;;;2.60;2.40;;;20.40;58.60;;;;;;5083864;28;20103;-41
2022/09/22 03:30:56;;;;;;;2.75;2.55;;;20.30;58.70;;;;;;5084563;28;20043;-41
2022/09/22 03:33:22;;;;;;;2.88;2.67;;;20.30;58.70;;;;;;5071218;28;20598;-41
2022/09/22 03:35:48;;;;;;;2.90;2.70;;;20.30;58.70;;;;;;5063657;28;20029;-41
2022/09/22 03:38:14;;;;;;;2.80;2.60;;;20.30;58.80;;;;;;5064000;28;20029;-41
2022/09/22 03:40:40;;;;;;;2.80;2.60;;;20.30;58.70;;;;;;5052640;28;20033;-41
2022/09/22 03:43:06;;;;;;;2.80;2.60;;;20.30;58.80;;;;;;5061547;28;20031;-42
2022/09/22 03:45:32;;;;;;;2.65;2.45;;;20.20;58.80;;;;;;5046989;28;20043;-42
2022/09/22 03:47:58;;;;;;;2.70;2.50;;;20.20;59.00;;;;;;5053689;28;20167;-43
2022/09/22 03:50:25;;;;;;;2.30;2.20;;;20.20;59.30;;;;;;5068626;28;20025;-41
2022/09/22 03:52:51;;;;;;;2.58;2.38;;;20.20;59.50;;;;;;5063969;28;20033;-41
2022/09/22 03:55:17;;;;;;;2.50;2.30;;;20.20;59.90;;;;;;5063820;28;20071;-41
2022/09/22 03:57:43;;;;;;;2.40;2.20;;;20.20;60.10;;;;;;5063525;28;20029;-41
2022/09/22 04:00:10;;;;;;;2.33;2.13;;;20.20;60.40;;;;;;5080095;28;20805;-41
2022/09/22 04:02:36;;;;;;;2.67;2.47;;;20.10;60.70;;;;;;5083574;28;20069;-41
2022/09/22 04:05:03;;;;;;;2.67;2.47;;;20.10;61.20;;;;;;5083925;28;20030;-40
2022/09/22 04:07:29;;;;;;;2.80;2.60;;;20.10;60.20;;;;;;5062176;28;20041;-40
2022/09/22 04:09:56;;;;;;;2.90;2.70;;;20.10;60.10;;;;;;5063535;28;20028;-40
2022/09/22 04:12:22;;;;;;;2.47;2.28;;;20.10;60.20;;;;;;5063792;28;20029;-40
2022/09/22 04:14:48;;;;;;;2.70;2.50;;;20.10;60.50;;;;;;5051850;28;20077;-40
2022/09/22 04:17:14;;;;;;;2.40;2.20;;;20.10;60.70;;;;;;5077449;28;20046;-40
2022/09/22 04:19:40;;;;;;;2.20;2.10;;;20.10;60.90;;;;;;5063274;28;20034;-40
2022/09/22 04:22:06;;;;;;;1.83;1.73;;;20.10;61.10;;;;;;5062949;28;20036;-40
2022/09/22 04:24:32;;;;;;;2.10;2.00;;;20.10;61.30;;;;;;5059593;28;20033;-44
2022/09/22 04:26:58;;;;;;;2.15;2.05;;;20.10;61.50;;;;;;5052847;28;20120;-42
2022/09/22 04:29:24;;;;;;;1.85;1.75;;;20.10;61.70;;;;;;5062897;28;20056;-41
2022/09/22 04:31:50;;;;;;;1.90;1.80;;;20.10;61.90;;;;;;5062965;28;20032;-42
2022/09/22 04:34:17;;;;;;;1.90;1.80;;;20.10;62.00;;;;;;5063029;28;20503;-41
2022/09/22 04:36:43;;;;;;;2.15;2.05;;;20.10;62.10;;;;;;5063162;28;20040;-41
2022/09/22 04:39:09;;;;;;;1.80;1.70;;;20.10;62.30;;;;;;5062651;28;20033;-41
2022/09/22 04:41:35;;;;;;;1.80;1.70;;;20.10;62.40;;;;;;5063085;28;20029;-41
2022/09/22 04:44:01;;;;;;;1.90;1.80;;;20.10;62.60;;;;;;5061726;28;20458;-42
2022/09/22 04:46:27;;;;;;;1.80;1.70;;;20.10;62.70;;;;;;5063188;28;20093;-42
2022/09/22 04:48:53;;;;;;;1.80;1.70;;;20.10;62.80;;;;;;5062177;28;20021;-43
2022/09/22 04:51:19;;;;;;;1.70;1.60;;;20.20;63.00;;;;;;5053333;28;20104;-41
2022/09/22 04:53:45;;;;;;;1.75;1.65;;;20.20;63.10;;;;;;5042462;28;20037;-40
2022/09/22 04:56:12;;;;;;;1.73;1.63;;;20.20;63.20;;;;;;5053350;28;20523;-40
2022/09/22 04:58:38;;;;;;;1.42;1.33;;;20.20;63.40;;;;;;5082509;28;20086;-41
2022/09/22 05:01:04;;;;;;;1.42;1.33;;;20.20;63.40;;;;;;5082818;28;20028;-41
2022/09/22 05:03:31;;;;;;;1.42;1.33;;;20.20;63.50;;;;;;5082753;28;20016;-42
2022/09/22 05:05:57;;;;;;;1.52;1.42;;;20.20;63.60;;;;;;5082324;28;20036;-42
2022/09/22 05:08:23;;;;;;;1.30;1.20;;;20.30;63.80;;;;;;5063619;28;20032;-44
2022/09/22 05:10:49;;;;;;;1.40;1.30;;;20.30;63.80;;;;;;5062610;28;20029;-43
2022/09/22 05:13:15;;;;;;;1.60;1.50;;;20.30;63.80;;;;;;5061996;28;20036;-41
2022/09/22 05:15:41;;;;;;;1.38;1.27;;;20.30;63.90;;;;;;5043616;28;20041;-41
2022/09/22 05:18:07;;;;;;;1.30;1.20;;;20.30;63.90;;;;;;5073527;28;20042;-41
2022/09/22 05:20:34;;;;;;;1.30;1.20;;;20.30;64.00;;;;;;5082264;28;20029;-42
2022/09/22 05:23:00;;;;;;;1.23;1.13;;;20.30;64.10;;;;;;5082527;28;20025;-42
2022/09/22 05:25:26;;;;;;;1.30;1.20;;;20.30;63.90;;;;;;5058514;28;20493;-44
2022/09/22 05:27:53;;;;;;;1.00;1.00;;;20.30;64.00;;;;;;5041411;28;20025;-43
2022/09/22 05:30:20;;;;;;;1.10;1.00;;;20.40;64.10;;;;;;5062494;28;20281;-43
2022/09/22 05:32:47;;;;;;;0.95;0.95;;;20.40;64.10;;;;;;5077090;28;20044;-42
2022/09/22 05:35:14;;;;;;;1.00;1.00;;;20.40;64.20;;;;;;5082219;28;20037;-43
2022/09/22 05:37:43;;;;;;;1.13;1.10;;;20.40;64.20;;;;;;5063772;28;20123;-43
2022/09/22 05:40:09;;;;;;;1.08;1.02;;;20.40;64.30;;;;;;5062601;28;20033;-43
2022/09/22 05:42:42;;;;;;;0.90;0.90;;;20.40;64.30;;;;;;5062083;28;20021;-43
2022/09/22 05:45:08;;;;;;;1.08;0.98;;;20.40;64.30;;;;;;5047253;28;20453;-42
2022/09/22 05:47:35;;;;;;;1.30;1.20;;;20.40;64.30;;;;;;5042089;28;20034;-42
2022/09/22 05:50:01;;;;;;;1.00;1.00;;;20.40;64.40;;;;;;5042441;28;20433;-42
2022/09/22 05:52:27;;;;;;;0.98;0.98;;;20.50;64.50;;;;;;5042143;28;20056;-42
2022/09/22 05:54:53;;;;;;;1.15;1.05;;;20.50;64.40;;;;;;5048386;28;20385;-42
2022/09/22 05:57:24;;;;;;;1.05;1.00;;;20.50;64.40;;;;;;5064225;28;20032;-42
2022/09/22 05:59:53;;;;;;;0.93;0.90;;;20.50;64.40;;;;;;5081942;28;20032;-42
2022/09/22 06:02:20;;;;;;;0.80;0.80;;;20.50;64.40;;;;;;5082077;28;20033;-42
2022/09/22 06:04:46;;;;;;;0.90;0.90;;;20.50;64.40;;;;;;5061353;28;20055;-42
2022/09/22 06:07:12;;;;;;;0.80;0.80;;;20.50;64.40;;;;;;5061088;28;20267;-43
2022/09/22 06:09:38;;;;;;;0.98;0.95;;;20.50;64.50;;;;;;5046100;28;20506;-43
2022/09/22 06:12:07;;;;;;;0.70;0.70;;;20.60;64.60;;;;;;5046080;28;20244;-42
2022/09/22 06:14:33;;;;;;;1.00;0.90;;;20.60;64.60;;;;;;5056335;28;20040;-42
2022/09/22 06:17:00;;;;;;;0.80;0.80;;;20.60;64.60;;;;;;5065662;28;20067;-43
2022/09/22 06:19:28;;;;;;;1.15;1.10;;;20.60;64.60;;;;;;5065576;28;20056;-43
2022/09/22 06:22:14;;;;;;;0.70;0.70;;;20.60;64.70;;;;;;5065896;28;20032;-44
2022/09/22 06:24:40;;;;;;;0.90;0.90;;;20.60;64.80;;;;;;4964559;29;20218;-43
2022/09/22 06:27:06;;;;;;;1.10;1.00;;;20.60;64.80;;;;;;4964344;29;20042;-44
2022/09/22 06:29:32;;;;;;;0.95;0.95;;;20.60;64.90;;;;;;4964798;29;20043;-44
2022/09/22 06:31:58;;;;;;;1.15;0.98;;;20.60;64.80;;;;;;4968251;28;20054;-42
2022/09/22 06:34:26;;;;;;;0.80;0.80;;;20.60;64.90;;;;;;5002858;28;20778;-41
2022/09/22 06:36:55;;;;;;;1.17;1.08;;;20.70;65.00;;;;;;5002877;28;20034;-41
2022/09/22 06:39:22;;;;;;;1.20;0.93;;;20.70;65.00;;;;;;5003263;28;20034;-41
2022/09/22 06:41:48;;;;;;;1.00;0.93;;;20.70;65.00;;;;;;5003269;28;20129;-42
2022/09/22 06:44:14;;;;;;;0.80;0.80;;;20.70;65.00;;;;;;5003198;28;20935;-42
2022/09/22 06:46:41;;;;;;;0.80;0.80;;;20.70;65.00;;;;;;5003285;28;20081;-42
2022/09/22 06:49:07;;;;;;;0.82;0.80;;;20.70;65.00;;;;;;4983383;28;20127;-41
2022/09/22 06:51:34;;;;;;;0.82;0.82;;;20.70;65.00;;;;;;4983757;28;20029;-43
2022/09/22 06:54:03;;;;;;;1.10;1.00;;;20.70;65.00;;;;;;4997145;28;20126;-43
2022/09/22 06:56:30;;;;;;;1.10;1.00;;;20.70;65.00;;;;;;4986248;28;20455;-43
2022/09/22 06:58:56;;;;;;;0.80;0.80;;;20.80;65.00;;;;;;5003177;28;20061;-44
2022/09/22 07:01:22;;;;;;;0.93;0.90;;;20.70;65.00;;;;;;5023663;28;20025;-41
2022/09/22 07:03:49;;;;;;;1.20;1.10;;;20.80;65.00;;;;;;5065002;28;20032;-41
2022/09/22 07:06:18;;;;;;;1.20;1.00;;;20.80;65.10;;;;;;5069142;28;20087;-41
2022/09/22 07:08:46;;;;;;;0.90;0.90;;;20.80;65.10;;;;;;5065111;28;20021;-41
2022/09/22 07:11:12;;;;;;;1.20;1.10;;;20.80;65.10;;;;;;5064947;28;20113;-43
2022/09/22 07:13:40;;;;;;;1.00;1.00;;;20.80;65.10;;;;;;5063783;28;20029;-41
2022/09/22 07:16:07;;;;;;;0.90;0.90;;;20.80;65.10;;;;;;5072694;28;20062;-41
2022/09/22 07:18:34;;;;;;;0.98;0.98;;;20.80;65.00;;;;;;5083860;28;20551;-41
2022/09/22 07:21:21;;;;;;;1.00;0.90;;;20.90;65.10;;;;;;5084782;28;20030;-42
2022/09/22 07:23:48;;;;;;;1.20;1.10;;;20.80;65.00;;;;;;5085206;28;20044;-42
2022/09/22 07:26:15;;;;;;;;;;;20.80;65.00;;;;;;5070857;28;20076;-42
2022/09/22 07:28:42;;;;;;;0.90;0.90;;;20.90;65.20;;;;;;5084412;28;19905;-42
2022/09/22 07:31:12;;;;;;;1.10;1.00;;;20.90;65.10;;;;;;5084846;28;20037;-42
2022/09/22 07:33:39;;;;;;;0.90;0.90;;;20.90;65.10;;;;;;5069072;28;20057;-42
2022/09/22 07:36:13;;;;;;;1.30;1.20;;;20.90;65.10;;;;;;5046057;28;20025;-42
2022/09/22 07:38:40;;;;;;;1.00;1.00;;;20.90;65.10;;;;;;5064020;28;20036;-43
2022/09/22 07:41:08;;;;;;;1.02;1.00;;;20.90;65.20;;;;;;5065182;28;20522;-42
2022/09/22 07:43:34;;;;;;;1.00;0.90;;;20.90;65.20;;;;;;5044810;28;20029;-43
2022/09/22 07:46:00;;;;;;;1.10;1.00;;;20.90;65.40;;;;;;5052299;28;20033;-42
2022/09/22 07:48:40;;;;;;;0.90;0.90;;;20.90;65.30;;;;;;5058237;28;20025;-42
2022/09/22 07:51:11;;;;;;;0.93;0.82;;;20.90;65.30;;;;;;5048186;28;20036;-41
2022/09/22 07:53:38;;;;;;;0.98;0.90;;;20.90;65.30;;;;;;5084009;28;20054;-42
2022/09/22 07:56:05;;;;;;;0.95;0.95;;;20.90;65.30;;;;;;5067863;28;20028;-42
2022/09/22 07:58:32;;;;;;;1.15;0.90;;;20.90;65.30;;;;;;5065888;28;20039;-52
2022/09/22 08:01:04;;;;;;;1.20;1.10;;;20.90;65.30;;;;;;5084163;28;20021;-56
2022/09/22 08:03:30;;;;;;;1.48;1.30;;;20.90;65.50;;;;;;5055045;28;20041;-55
2022/09/22 08:06:06;;;;;;;2.67;2.00;;;20.90;65.40;;;;;;5059907;28;20018;-55
2022/09/22 08:08:33;;;;;;;1.90;1.80;;;20.90;65.40;;;;;;5043633;28;20036;-49
2022/09/22 08:11:04;;;;;;;1.90;1.73;;;20.90;65.40;;;;;;5058130;28;20032;-42
2022/09/22 08:13:30;;;;;;;3.03;2.05;;;20.90;65.50;;;;;;5062891;28;20297;-50
2022/09/22 08:15:56;;;;;;;9.25;2.60;;;20.90;65.50;;;;;;5043836;28;20021;-55
2022/09/22 08:18:25;;;;;;;5.38;2.38;;;21.00;65.70;;;;;;5053450;28;20027;-58
2022/09/22 08:20:51;;;;;;;5.45;2.45;;;21.00;65.70;;;;;;5063720;28;20025;-56
2022/09/22 08:23:17;;;;;;;6.13;3.13;;;21.00;65.80;;;;;;5063146;28;20051;-56
2022/09/22 08:25:43;;;;;;;6.20;2.95;;;21.00;66.00;;;;;;5071070;28;20036;-41
2022/09/22 08:28:09;;;;;;;5.13;2.97;;;21.00;66.40;;;;;;5062910;28;20021;-42
2022/09/22 08:30:35;;;;;;;5.53;2.88;;;21.00;66.40;;;;;;5065804;28;20033;-42
2022/09/22 08:33:02;;;;;;;8.18;2.80;;;21.00;66.30;;;;;;5082758;28;20536;-42
2022/09/22 08:35:28;;;;;;;5.65;2.55;;;21.10;66.30;;;;;;5083400;28;20040;-42
2022/09/22 08:37:54;;;;;;;3.53;2.67;;;21.10;66.20;;;;;;5082803;28;20052;-42
2022/09/22 08:40:22;;;;;;;4.90;2.75;;;21.10;66.10;;;;;;5081789;28;20132;-42
2022/09/22 08:42:54;;;;;;;4.60;2.67;;;21.10;66.00;;;;;;5029251;28;20028;-42
2022/09/22 08:45:31;;;;;;;4.50;2.88;;;21.10;65.90;;;;;;5044298;28;20039;-42
2022/09/22 08:53:47;;;;;;;3.53;2.90;;;21.10;65.70;;;;;;5061836;28;20059;-42
2022/09/22 08:56:24;;;;;;;5.15;2.92;;;21.10;65.50;;;;;;5047675;28;20036;-42
2022/09/22 08:59:11;;;;;;;3.90;2.78;;;21.10;65.40;;;;;;5062378;28;20029;-41
2022/09/22 09:01:45;;;;;;;4.10;2.65;;;21.10;65.30;;;;;;5062995;28;20029;-42
2022/09/22 09:04:41;;;;;;;4.85;2.60;;;21.10;65.30;;;;;;5062812;28;20055;-42
2022/09/22 09:07:13;;;;;;;5.05;2.78;;;21.10;65.20;;;;;;5037725;28;20116;-41
2022/09/22 09:09:49;;;;;;;3.30;2.90;;;21.20;65.20;;;;;;5062331;28;20044;-42
2022/09/22 09:12:21;;;;;;;3.90;2.80;;;21.20;65.10;;;;;;5061930;28;20732;-41
2022/09/22 09:15:14;;;;;;;2.70;2.45;;;21.20;65.00;;;;;;5061174;28;20166;-42
2022/09/22 09:17:40;;;;;;;3.00;2.60;;;21.20;64.90;;;;;;5029031;28;20509;-42
2022/09/22 09:20:43;;;;;;;3.00;2.53;;;21.10;64.80;;;;;;5061963;28;20040;-43
2022/09/22 09:23:14;;;;;;;6.47;2.92;;;21.10;64.80;;;;;;4980277;28;20027;-42
2022/09/22 09:25:41;;;;;;;4.38;2.85;;;21.20;64.70;;;;;;4952291;29;20063;-42
2022/09/22 09:28:13;;;;;;;2.97;2.67;;;21.20;64.70;;;;;;4961301;29;20027;-41
2022/09/22 09:30:50;;;;;;;4.15;3.10;;;21.10;64.60;;;;;;4961696;28;20054;-42
2022/09/22 09:33:46;;;;;;;3.58;3.00;;;21.10;64.60;;;;;;4972756;28;20156;-42
2022/09/22 09:36:16;;;;;;;3.33;3.03;;;21.20;64.60;;;;;;4980889;28;20034;-42
2022/09/22 09:38:47;;;;;;;2.95;2.55;;;21.10;64.60;;;;;;5003321;28;20031;-43
2022/09/22 09:41:16;;;;;;;4.65;3.22;;;21.20;64.50;;;;;;4999880;28;20053;-42
2022/09/22 09:43:44;;;;;;;3.08;2.78;;;21.10;64.50;;;;;;4983440;28;20062;-42
2022/09/22 09:46:42;;;;;;;3.13;2.90;;;21.10;64.40;;;;;;4980868;28;20074;-42
2022/09/22 09:49:13;;;;;;;2.97;2.63;;;21.10;64.40;;;;;;4980284;28;20039;-42
2022/09/22 09:51:42;;;;;;;3.33;2.92;;;21.20;64.30;;;;;;4996185;28;20823;-42
2022/09/22 09:54:08;;;;;;;3.90;3.05;;;21.10;64.30;;;;;;5006002;28;20065;-42
2022/09/22 09:56:37;;;;;;;3.40;3.10;;;21.20;64.20;;;;;;5002351;28;20135;-42
2022/09/22 10:01:50;;;;;;;3.03;2.72;;;21.10;64.10;;;;;;5061908;28;20040;-42
2022/09/22 10:04:37;;;;;;;3.08;2.85;;;21.10;64.10;;;;;;5075369;28;20048;-42
2022/09/22 10:07:38;;;;;;;3.88;3.05;;;21.10;64.10;;;;;;5081971;28;20083;-43
2022/09/22 10:10:34;;;;;;;2.95;2.75;;;21.10;64.00;;;;;;5072361;28;20037;-42
2022/09/22 10:13:03;;;;;;;3.35;3.05;;;21.10;64.00;;;;;;5081328;28;20017;-41
2022/09/22 10:15:39;;;;;;;3.45;3.15;;;21.10;64.00;;;;;;5080671;28;20108;-42
2022/09/22 10:18:24;;;;;;;3.35;2.97;;;21.10;64.00;;;;;;5082017;28;20028;-42
2022/09/22 10:21:14;;;;;;;3.33;3.03;;;21.10;63.90;;;;;;5081773;28;20055;-42
2022/09/22 10:23:41;;;;;;;3.20;2.90;;;21.10;63.90;;;;;;5081948;28;20067;-42
2022/09/22 10:26:34;;;;;;;3.17;2.88;;;21.10;63.80;;;;;;5047422;28;20048;-42
2022/09/22 10:29:16;;;;;;;3.35;2.88;;;21.10;63.80;;;;;;5059437;28;20064;-42
2022/09/22 10:32:02;;;;;;;3.38;3.08;;;21.10;63.80;;;;;;5061864;28;20029;-42
2022/09/22 10:34:39;;;;;;;3.38;3.08;;;21.10;63.80;;;;;;5041527;28;20046;-42
2022/09/22 10:37:11;;;;;;;3.55;3.25;;;21.10;63.80;;;;;;5055369;28;20043;-42
2022/09/22 10:39:56;;;;;;;3.25;3.00;;;21.10;63.80;;;;;;5061183;28;20033;-42
2022/09/22 10:42:42;;;;;;;3.20;2.90;;;21.10;63.80;;;;;;5039567;28;20128;-42
2022/09/22 10:45:12;;;;;;;3.60;3.30;;;21.10;63.80;;;;;;5020659;28;20079;-42
2022/09/22 10:47:56;;;;;;;3.78;3.28;;;21.00;63.60;;;;;;5061694;28;20028;-42
2022/09/22 10:50:37;;;;;;;2.97;2.75;;;21.10;63.70;;;;;;5061379;28;20041;-42
2022/09/22 10:53:10;;;;;;;3.75;2.85;;;21.00;63.70;;;;;;5062486;28;20021;-42
2022/09/22 10:55:58;;;;;;;3.15;2.85;;;21.00;63.70;;;;;;5041949;28;20051;-42
2022/09/22 10:58:39;;;;;;;3.40;3.10;;;21.10;63.70;;;;;;5028378;28;20049;-43
2022/09/22 11:01:31;;;;;;;3.50;3.20;;;21.00;63.60;;;;;;5045028;28;20044;-42
2022/09/22 11:04:03;;;;;;;3.30;3.00;;;21.10;63.70;;;;;;5045078;28;20057;-42
2022/09/22 11:12:41;;;;;;;3.65;2.90;;;21.00;63.60;;;;;;5045161;28;20099;-42
2022/09/22 11:15:24;;;;;;;5.03;3.00;;;21.00;63.70;;;;;;5047917;28;20041;-41
2022/09/22 11:18:08;;;;;;;3.88;3.30;;;21.00;64.30;;;;;;5031024;28;20021;-39
2022/09/22 11:20:58;;;;;;;3.83;3.38;;;21.00;63.60;;;;;;5044794;28;20026;-40
2022/09/22 11:23:44;;;;;;;4.28;3.22;;;21.00;63.60;;;;;;5044726;28;20060;-39
2022/09/22 11:26:27;;;;;;;3.13;2.83;;;21.00;63.60;;;;;;5044546;28;20022;-45
2022/09/22 11:29:21;;;;;;;3.58;3.28;;;21.00;63.60;;;;;;5044687;28;20097;-42
2022/09/22 11:31:48;;;;;;;4.10;3.53;;;21.00;63.60;;;;;;5027549;28;20025;-45
2022/09/22 11:34:26;;;;;;;3.80;3.50;;;21.00;63.60;;;;;;5044559;28;20152;-44
2022/09/22 11:37:26;;;;;;;3.60;3.30;;;21.00;63.60;;;;;;5049636;28;20025;-43
2022/09/22 11:40:15;;;;;;;3.70;3.40;;;21.00;63.70;;;;;;5044049;28;20044;-44
2022/09/22 11:43:14;;;;;;;3.70;3.40;;;21.00;63.60;;;;;;5048152;28;20838;-44
2022/09/22 11:45:48;;;;;;;3.80;3.50;;;21.00;63.60;;;;;;5029086;28;20033;-43
2022/09/22 11:48:57;;;;;;;3.28;3.08;;;21.00;63.60;;;;;;5064036;28;20025;-46
2022/09/22 11:51:45;;;;;;;3.67;3.38;;;20.90;63.60;;;;;;5054471;28;20041;-44
2022/09/22 11:54:17;;;;;;;4.03;3.13;;;20.90;63.60;;;;;;5063051;28;20041;-44
2022/09/22 11:56:46;;;;;;;3.67;3.38;;;20.90;63.60;;;;;;5063933;28;20028;-43
2022/09/22 11:59:33;;;;;;;3.40;3.10;;;20.90;63.60;;;;;;5046265;28;20040;-44
2022/09/22 12:02:03;;;;;;;4.18;3.78;;;20.90;63.60;;;;;;5046794;28;20025;-44
2022/09/22 12:05:00;;;;;;;3.65;3.35;;;20.90;63.60;;;;;;5046047;28;20062;-44
2022/09/22 12:07:29;;;;;;;3.90;3.60;;;20.90;63.60;;;;;;4962497;29;20031;-43
2022/09/22 12:10:00;;;;;;;3.53;3.22;;;20.90;63.60;;;;;;4946741;29;20035;-43
2022/09/22 12:12:27;;;;;;;3.65;3.35;;;20.90;63.60;;;;;;4946635;29;20039;-44
2022/09/22 12:15:08;;;;;;;3.53;3.20;;;20.90;63.60;;;;;;4945989;29;20081;-43
2022/09/22 12:17:37;;;;;;;3.60;3.30;;;20.90;63.60;;;;;;4926154;28;20035;-44
2022/09/22 12:20:36;;;;;;;3.67;3.38;;;20.90;63.60;;;;;;4941510;28;20027;-44
2022/09/22 12:23:29;;;;;;;3.85;3.55;;;20.90;63.80;;;;;;4917381;29;20034;-44
2022/09/22 12:26:02;;;;;;;3.90;3.60;;;20.90;63.60;;;;;;4900839;29;20111;-45
2022/09/22 12:28:29;;;;;;;3.55;3.25;;;20.90;63.60;;;;;;4902963;29;20028;-44
2022/09/22 12:31:05;;;;;;;3.72;3.42;;;20.90;63.60;;;;;;4905774;29;20666;-44
2022/09/22 12:33:35;;;;;;;3.45;3.25;;;20.90;63.70;;;;;;4932136;29;20536;-43
2022/09/22 12:36:01;;;;;;;3.70;3.40;;;20.90;63.60;;;;;;4943505;29;20051;-44
2022/09/22 12:38:29;;;;;;;3.43;3.13;;;20.90;63.60;;;;;;4954708;29;20092;-45
2022/09/22 12:40:57;;;;;;;3.88;3.58;;;20.90;63.70;;;;;;4977852;28;20273;-44
2022/09/22 12:43:23;;;;;;;3.78;3.50;;;20.90;63.60;;;;;;4985122;28;20527;-45
2022/09/22 12:45:50;;;;;;;3.85;3.55;;;20.90;63.60;;;;;;5002106;28;20046;-43
2022/09/22 12:48:30;;;;;;;4.38;3.97;;;20.90;63.70;;;;;;5001034;28;20026;-44
2022/09/22 12:51:34;;;;;;;3.80;3.50;;;20.90;63.70;;;;;;5020709;28;20026;-44
2022/09/22 12:54:36;;;;;;;4.07;3.67;;;20.90;63.60;;;;;;5000730;28;20080;-43
2022/09/22 12:57:07;;;;;;;3.75;3.45;;;20.90;63.70;;;;;;5020588;28;20034;-43
2022/09/22 12:59:35;;;;;;;4.07;3.78;;;20.90;63.70;;;;;;4993455;28;20038;-43
2022/09/22 13:02:16;;;;;;;3.95;3.65;;;20.90;63.70;;;;;;5001063;28;20042;-43
2022/09/22 13:05:03;;;;;;;3.70;3.40;;;20.90;63.70;;;;;;5000892;28;20062;-43
2022/09/22 13:07:44;;;;;;;3.53;3.22;;;20.90;63.70;;;;;;5000740;28;20081;-43
2022/09/22 13:10:22;;;;;;;3.83;3.53;;;20.80;63.70;;;;;;5000261;28;20053;-44
2022/09/22 13:13:01;;;;;;;3.60;3.30;;;20.80;63.70;;;;;;5000519;28;20039;-45
2022/09/22 13:15:45;;;;;;;3.92;3.20;;;20.90;63.80;;;;;;4999152;28;20053;-43
2022/09/22 13:18:40;;;;;;;3.80;3.45;;;20.80;63.70;;;;;;5000363;28;20038;-45
2022/09/22 13:21:12;;;;;;;3.90;3.58;;;20.90;63.80;;;;;;5003515;28;20045;-43
2022/09/22 13:23:51;;;;;;;3.53;3.33;;;20.90;63.80;;;;;;5020577;28;20133;-43
2022/09/22 13:26:30;;;;;;;3.40;3.10;;;20.80;63.70;;;;;;5039925;28;20033;-44
2022/09/22 13:29:18;;;;;;;3.60;3.30;;;20.90;63.80;;;;;;5039628;28;20168;-43